sensor_id;sensor_type;location;lat;lon;timestamp;pressure;altitude;pressure_sealevel;temperature;humidity
24762;BME280;12865;51.934;10.330;2023-03-20T00:00:50;99204.94;;;10.26;100.00
24762;BME280;12865;51.934;10.330;2023-03-20T00:03:36;99210.38;;;10.24;100.00
24762;BME280;12865;51.934;10.330;2023-03-20T00:06:24;99216.69;;;10.23;100.00
24762;BME280;12865;51.934;10.330;2023-03-20T00:09:10;99221.63;;;10.28;100.00
24762;BME280;12865;51.934;10.330;2023-03-20T00:11:58;99225.00;;;10.30;100.00
24762;BME280;12865;51.934;10.330;2023-03-20T00:14:44;99225.69;;;10.22;100.00
24762;BME280;12865;51.934;10.330;2023-03-20T00:17:30;99232.41;;;10.27;100.00
24762;BME280;12865;51.934;10.330;2023-03-20T00:20:16;99230.47;;;10.29;100.00
24762;BME280;12865;51.934;10.330;2023-03-20T00:23:02;99229.19;;;10.33;100.00
24762;BME280;12865;51.934;10.330;2023-03-20T00:25:49;99223.31;;;10.29;100.00
24762;BME280;12865;51.934;10.330;2023-03-20T00:28:38;99226.81;;;10.30;100.00
24762;BME280;12865;51.934;10.330;2023-03-20T00:31:43;99219.25;;;10.35;100.00
24762;BME280;12865;51.934;10.330;2023-03-20T00:34:29;99226.81;;;10.30;100.00
24762;BME280;12865;51.934;10.330;2023-03-20T00:37:15;99234.94;;;10.28;100.00
24762;BME280;12865;51.934;10.330;2023-03-20T00:40:01;99228.47;;;10.31;100.00
24762;BME280;12865;51.934;10.330;2023-03-20T00:42:50;99223.44;;;10.28;100.00
24762;BME280;12865;51.934;10.330;2023-03-20T00:45:43;99226.19;;;10.16;100.00
24762;BME280;12865;51.934;10.330;2023-03-20T00:48:29;99228.16;;;10.14;100.00
24762;BME280;12865;51.934;10.330;2023-03-20T00:51:17;99216.66;;;10.14;100.00
24762;BME280;12865;51.934;10.330;2023-03-20T00:54:12;99214.19;;;10.22;100.00
24762;BME280;12865;51.934;10.330;2023-03-20T00:57:11;99206.88;;;10.24;100.00
24762;BME280;12865;51.934;10.330;2023-03-20T01:00:02;99213.88;;;10.15;100.00
24762;BME280;12865;51.934;10.330;2023-03-20T01:02:54;99214.25;;;10.11;100.00
24762;BME280;12865;51.934;10.330;2023-03-20T01:05:42;99216.53;;;10.15;100.00
24762;BME280;12865;51.934;10.330;2023-03-20T01:08:28;99212.88;;;10.16;100.00
24762;BME280;12865;51.934;10.330;2023-03-20T01:11:16;99221.72;;;10.17;100.00
24762;BME280;12865;51.934;10.330;2023-03-20T01:14:03;99225.50;;;10.14;100.00
24762;BME280;12865;51.934;10.330;2023-03-20T01:16:50;99223.50;;;10.16;100.00
24762;BME280;12865;51.934;10.330;2023-03-20T01:19:36;99227.06;;;10.17;100.00
24762;BME280;12865;51.934;10.330;2023-03-20T01:22:21;99224.13;;;10.20;100.00
24762;BME280;12865;51.934;10.330;2023-03-20T01:25:08;99221.59;;;10.18;100.00
24762;BME280;12865;51.934;10.330;2023-03-20T01:27:53;99224.25;;;10.18;100.00
24762;BME280;12865;51.934;10.330;2023-03-20T01:30:39;99219.91;;;10.17;100.00
24762;BME280;12865;51.934;10.330;2023-03-20T01:33:25;99219.53;;;10.22;100.00
24762;BME280;12865;51.934;10.330;2023-03-20T01:36:14;99220.38;;;10.22;100.00
24762;BME280;12865;51.934;10.330;2023-03-20T01:39:00;99225.28;;;10.27;100.00
24762;BME280;12865;51.934;10.330;2023-03-20T01:41:46;99225.81;;;10.31;100.00
24762;BME280;12865;51.934;10.330;2023-03-20T01:44:34;99236.34;;;10.32;100.00
24762;BME280;12865;51.934;10.330;2023-03-20T01:47:22;99235.50;;;10.32;100.00
24762;BME280;12865;51.934;10.330;2023-03-20T01:53:11;99228.22;;;10.34;100.00
24762;BME280;12865;51.934;10.330;2023-03-20T01:55:59;99230.88;;;10.34;100.00
24762;BME280;12865;51.934;10.330;2023-03-20T01:58:50;99228.09;;;10.35;100.00
24762;BME280;12865;51.934;10.330;2023-03-20T02:01:39;99230.88;;;10.34;100.00
24762;BME280;12865;51.934;10.330;2023-03-20T02:04:30;99223.75;;;10.34;100.00
24762;BME280;12865;51.934;10.330;2023-03-20T02:07:20;99223.59;;;10.36;100.00
24762;BME280;12865;51.934;10.330;2023-03-20T02:10:10;99231.31;;;10.39;100.00
24762;BME280;12865;51.934;10.330;2023-03-20T02:12:57;99232.88;;;10.41;100.00
24762;BME280;12865;51.934;10.330;2023-03-20T02:16:18;99241.28;;;10.46;100.00
24762;BME280;12865;51.934;10.330;2023-03-20T02:19:07;99243.09;;;10.46;100.00
24762;BME280;12865;51.934;10.330;2023-03-20T02:25:53;99239.19;;;10.50;100.00
24762;BME280;12865;51.934;10.330;2023-03-20T02:35:21;99243.81;;;10.67;100.00
24762;BME280;12865;51.934;10.330;2023-03-20T02:41:25;99264.72;;;10.43;100.00
24762;BME280;12865;51.934;10.330;2023-03-20T02:44:25;99267.94;;;10.37;100.00
24762;BME280;12865;51.934;10.330;2023-03-20T02:47:21;99266.22;;;10.26;100.00
24762;BME280;12865;51.934;10.330;2023-03-20T02:50:32;99277.81;;;10.15;100.00
24762;BME280;12865;51.934;10.330;2023-03-20T02:53:36;99278.59;;;10.06;100.00
24762;BME280;12865;51.934;10.330;2023-03-20T02:59:47;99289.81;;;10.00;100.00
24762;BME280;12865;51.934;10.330;2023-03-20T03:02:42;99294.72;;;10.05;100.00
24762;BME280;12865;51.934;10.330;2023-03-20T03:05:39;99292.59;;;9.99;100.00
24762;BME280;12865;51.934;10.330;2023-03-20T03:08:31;99294.16;;;10.01;100.00
24762;BME280;12865;51.934;10.330;2023-03-20T03:11:18;99298.72;;;9.90;100.00
24762;BME280;12865;51.934;10.330;2023-03-20T03:14:06;99289.19;;;9.87;100.00
24762;BME280;12865;51.934;10.330;2023-03-20T03:16:52;99291.97;;;9.85;100.00
24762;BME280;12865;51.934;10.330;2023-03-20T03:19:41;99295.78;;;9.93;100.00
24762;BME280;12865;51.934;10.330;2023-03-20T03:22:28;99300.53;;;9.89;100.00
24762;BME280;12865;51.934;10.330;2023-03-20T03:25:16;99307.25;;;9.83;100.00
24762;BME280;12865;51.934;10.330;2023-03-20T03:28:06;99304.69;;;9.82;100.00
24762;BME280;12865;51.934;10.330;2023-03-20T03:30:53;99301.78;;;9.85;100.00
24762;BME280;12865;51.934;10.330;2023-03-20T03:33:44;99307.66;;;9.79;100.00
24762;BME280;12865;51.934;10.330;2023-03-20T03:39:41;99314.38;;;9.83;100.00
24762;BME280;12865;51.934;10.330;2023-03-20T03:42:41;99312.06;;;9.69;100.00
24762;BME280;12865;51.934;10.330;2023-03-20T03:45:37;99313.75;;;9.70;100.00
24762;BME280;12865;51.934;10.330;2023-03-20T03:48:29;99312.97;;;9.79;100.00
24762;BME280;12865;51.934;10.330;2023-03-20T03:51:21;99316.06;;;9.84;100.00
24762;BME280;12865;51.934;10.330;2023-03-20T03:54:12;99314.56;;;9.91;100.00
24762;BME280;12865;51.934;10.330;2023-03-20T03:57:01;99311.69;;;9.73;100.00
24762;BME280;12865;51.934;10.330;2023-03-20T03:59:49;99305.16;;;9.87;100.00
24762;BME280;12865;51.934;10.330;2023-03-20T04:02:37;99308.13;;;9.63;100.00
24762;BME280;12865;51.934;10.330;2023-03-20T04:05:24;99308.66;;;9.57;100.00
24762;BME280;12865;51.934;10.330;2023-03-20T04:08:13;99306.19;;;9.65;100.00
24762;BME280;12865;51.934;10.330;2023-03-20T04:10:59;99303.88;;;9.61;100.00
24762;BME280;12865;51.934;10.330;2023-03-20T04:13:49;99310.78;;;9.63;100.00
24762;BME280;12865;51.934;10.330;2023-03-20T04:16:35;99305.00;;;9.58;100.00
24762;BME280;12865;51.934;10.330;2023-03-20T04:19:21;99308.44;;;9.70;100.00
24762;BME280;12865;51.934;10.330;2023-03-20T04:22:06;99307.28;;;9.63;100.00
24762;BME280;12865;51.934;10.330;2023-03-20T04:24:52;99306.09;;;9.56;100.00
24762;BME280;12865;51.934;10.330;2023-03-20T04:27:38;99312.94;;;9.49;100.00
24762;BME280;12865;51.934;10.330;2023-03-20T04:30:23;99308.84;;;9.44;100.00
24762;BME280;12865;51.934;10.330;2023-03-20T04:33:09;99310.06;;;9.40;100.00
24762;BME280;12865;51.934;10.330;2023-03-20T04:35:55;99307.16;;;9.43;100.00
24762;BME280;12865;51.934;10.330;2023-03-20T04:38:41;99318.06;;;9.40;100.00
24762;BME280;12865;51.934;10.330;2023-03-20T04:41:27;99320.50;;;9.32;100.00
24762;BME280;12865;51.934;10.330;2023-03-20T04:44:12;99322.16;;;9.24;100.00
24762;BME280;12865;51.934;10.330;2023-03-20T04:46:58;99329.28;;;9.23;100.00
24762;BME280;12865;51.934;10.330;2023-03-20T04:49:44;99325.34;;;9.18;100.00
24762;BME280;12865;51.934;10.330;2023-03-20T04:52:30;99331.47;;;9.18;100.00
24762;BME280;12865;51.934;10.330;2023-03-20T04:55:16;99326.03;;;9.20;100.00
24762;BME280;12865;51.934;10.330;2023-03-20T04:58:01;99322.38;;;9.00;100.00
24762;BME280;12865;51.934;10.330;2023-03-20T05:00:47;99322.81;;;9.05;100.00
24762;BME280;12865;51.934;10.330;2023-03-20T05:03:33;99327.97;;;8.97;100.00
24762;BME280;12865;51.934;10.330;2023-03-20T05:06:18;99316.34;;;8.98;100.00
24762;BME280;12865;51.934;10.330;2023-03-20T05:09:04;99316.34;;;8.98;100.00
24762;BME280;12865;51.934;10.330;2023-03-20T05:11:50;99318.63;;;9.02;100.00
24762;BME280;12865;51.934;10.330;2023-03-20T05:14:35;99316.09;;;9.01;100.00
24762;BME280;12865;51.934;10.330;2023-03-20T05:17:22;99314.16;;;9.03;100.00
24762;BME280;12865;51.934;10.330;2023-03-20T05:20:08;99308.34;;;8.98;100.00
24762;BME280;12865;51.934;10.330;2023-03-20T05:22:54;99306.69;;;8.97;100.00
24762;BME280;12865;51.934;10.330;2023-03-20T05:25:39;99304.03;;;8.97;100.00
24762;BME280;12865;51.934;10.330;2023-03-20T05:28:26;99302.91;;;8.99;100.00
24762;BME280;12865;51.934;10.330;2023-03-20T05:31:12;99294.22;;;8.97;100.00
24762;BME280;12865;51.934;10.330;2023-03-20T05:33:57;99302.91;;;8.99;100.00
24762;BME280;12865;51.934;10.330;2023-03-20T05:36:43;99304.59;;;9.00;100.00
24762;BME280;12865;51.934;10.330;2023-03-20T05:39:29;99311.94;;;9.08;100.00
24762;BME280;12865;51.934;10.330;2023-03-20T05:42:14;99311.22;;;9.06;100.00
24762;BME280;12865;51.934;10.330;2023-03-20T05:45:00;99314.72;;;9.06;100.00
24762;BME280;12865;51.934;10.330;2023-03-20T05:47:46;99306.50;;;9.10;100.00
24762;BME280;12865;51.934;10.330;2023-03-20T05:50:31;99308.66;;;9.16;100.00
24762;BME280;12865;51.934;10.330;2023-03-20T05:53:17;99305.16;;;9.15;100.00
24762;BME280;12865;51.934;10.330;2023-03-20T05:56:03;99307.19;;;9.12;100.00
24762;BME280;12865;51.934;10.330;2023-03-20T05:58:49;99295.59;;;9.13;100.00
24762;BME280;12865;51.934;10.330;2023-03-20T06:01:36;99293.78;;;9.13;100.00
24762;BME280;12865;51.934;10.330;2023-03-20T06:04:22;99299.69;;;9.17;100.00
24762;BME280;12865;51.934;10.330;2023-03-20T06:07:07;99291.56;;;9.18;100.00
24762;BME280;12865;51.934;10.330;2023-03-20T06:09:53;99299.91;;;9.25;100.00
24762;BME280;12865;51.934;10.330;2023-03-20T06:12:39;99294.44;;;9.26;100.00
24762;BME280;12865;51.934;10.330;2023-03-20T06:15:28;99300.72;;;9.25;100.00
24762;BME280;12865;51.934;10.330;2023-03-20T06:18:14;99296.13;;;9.27;100.00
24762;BME280;12865;51.934;10.330;2023-03-20T06:20:59;99303.25;;;9.27;100.00
24762;BME280;12865;51.934;10.330;2023-03-20T06:23:46;99302.28;;;9.28;100.00
24762;BME280;12865;51.934;10.330;2023-03-20T06:26:32;99308.91;;;9.33;100.00
24762;BME280;12865;51.934;10.330;2023-03-20T06:29:18;99328.78;;;9.29;100.00
24762;BME280;12865;51.934;10.330;2023-03-20T06:32:06;99320.91;;;9.28;100.00
24762;BME280;12865;51.934;10.330;2023-03-20T06:34:52;99312.09;;;9.27;100.00
24762;BME280;12865;51.934;10.330;2023-03-20T06:37:38;99308.38;;;9.39;100.00
24762;BME280;12865;51.934;10.330;2023-03-20T06:40:24;99311.88;;;9.40;100.00
24762;BME280;12865;51.934;10.330;2023-03-20T06:43:11;99309.81;;;9.43;100.00
24762;BME280;12865;51.934;10.330;2023-03-20T06:45:57;99313.91;;;9.48;100.00
24762;BME280;12865;51.934;10.330;2023-03-20T06:48:43;99316.13;;;9.42;100.00
24762;BME280;12865;51.934;10.330;2023-03-20T06:51:29;99308.00;;;9.44;100.00
24762;BME280;12865;51.934;10.330;2023-03-20T06:54:15;99317.28;;;9.50;100.00
24762;BME280;12865;51.934;10.330;2023-03-20T06:57:00;99313.66;;;9.51;100.00
24762;BME280;12865;51.934;10.330;2023-03-20T06:59:46;99310.88;;;9.52;100.00
24762;BME280;12865;51.934;10.330;2023-03-20T07:02:32;99313.91;;;9.48;100.00
24762;BME280;12865;51.934;10.330;2023-03-20T07:05:17;99318.13;;;9.50;100.00
24762;BME280;12865;51.934;10.330;2023-03-20T07:08:03;99324.19;;;9.52;100.00
24762;BME280;12865;51.934;10.330;2023-03-20T07:10:50;99331.03;;;9.55;100.00
24762;BME280;12865;51.934;10.330;2023-03-20T07:13:36;99328.97;;;9.58;100.00
24762;BME280;12865;51.934;10.330;2023-03-20T07:16:22;99335.47;;;9.65;100.00
24762;BME280;12865;51.934;10.330;2023-03-20T07:19:08;99341.44;;;9.58;100.00
24762;BME280;12865;51.934;10.330;2023-03-20T07:21:57;99340.91;;;9.64;100.00
24762;BME280;12865;51.934;10.330;2023-03-20T07:24:46;99344.13;;;9.67;100.00
24762;BME280;12865;51.934;10.330;2023-03-20T07:27:31;99341.09;;;9.72;100.00
24762;BME280;12865;51.934;10.330;2023-03-20T07:30:17;99342.31;;;9.68;100.00
24762;BME280;12865;51.934;10.330;2023-03-20T07:33:03;99347.06;;;9.64;100.00
24762;BME280;12865;51.934;10.330;2023-03-20T07:35:53;99337.00;;;9.68;100.00
24762;BME280;12865;51.934;10.330;2023-03-20T07:38:39;99352.28;;;9.66;100.00
24762;BME280;12865;51.934;10.330;2023-03-20T07:41:25;99350.06;;;9.71;100.00
24762;BME280;12865;51.934;10.330;2023-03-20T07:44:10;99356.53;;;9.78;100.00
24762;BME280;12865;51.934;10.330;2023-03-20T07:46:58;99355.03;;;9.85;100.00
24762;BME280;12865;51.934;10.330;2023-03-20T07:49:44;99354.97;;;9.75;100.00
24762;BME280;12865;51.934;10.330;2023-03-20T07:52:31;99359.63;;;9.73;100.00
24762;BME280;12865;51.934;10.330;2023-03-20T07:55:16;99349.84;;;9.63;100.00
24762;BME280;12865;51.934;10.330;2023-03-20T07:58:02;99360.25;;;9.66;100.00
24762;BME280;12865;51.934;10.330;2023-03-20T08:00:48;99358.16;;;9.69;100.00
24762;BME280;12865;51.934;10.330;2023-03-20T08:07:16;99354.41;;;9.72;100.00
24762;BME280;12865;51.934;10.330;2023-03-20T08:10:02;99352.00;;;9.69;100.00
24762;BME280;12865;51.934;10.330;2023-03-20T08:12:48;99349.22;;;9.70;100.00
24762;BME280;12865;51.934;10.330;2023-03-20T08:15:34;99361.44;;;9.73;100.00
24762;BME280;12865;51.934;10.330;2023-03-20T08:18:19;99361.69;;;9.70;100.00
24762;BME280;12865;51.934;10.330;2023-03-20T08:21:07;99362.28;;;9.73;100.00
24762;BME280;12865;51.934;10.330;2023-03-20T08:23:53;99365.06;;;9.72;100.00
24762;BME280;12865;51.934;10.330;2023-03-20T08:26:39;99362.53;;;9.70;100.00
24762;BME280;12865;51.934;10.330;2023-03-20T08:29:25;99352.41;;;9.64;100.00
24762;BME280;12865;51.934;10.330;2023-03-20T08:32:10;99350.78;;;9.73;100.00
24762;BME280;12865;51.934;10.330;2023-03-20T08:34:56;99351.78;;;9.81;100.00
24762;BME280;12865;51.934;10.330;2023-03-20T08:37:42;99354.97;;;9.75;100.00
24762;BME280;12865;51.934;10.330;2023-03-20T08:40:27;99357.81;;;9.83;100.00
24762;BME280;12865;51.934;10.330;2023-03-20T08:43:13;99356.28;;;9.81;100.00
24762;BME280;12865;51.934;10.330;2023-03-20T08:45:59;99365.06;;;9.72;100.00
24762;BME280;12865;51.934;10.330;2023-03-20T08:48:44;99364.84;;;9.84;100.00
24762;BME280;12865;51.934;10.330;2023-03-20T08:51:30;99371.47;;;9.90;100.00
24762;BME280;12865;51.934;10.330;2023-03-20T08:54:16;99373.47;;;9.98;100.00
24762;BME280;12865;51.934;10.330;2023-03-20T08:57:02;99371.88;;;10.16;100.00
24762;BME280;12865;51.934;10.330;2023-03-20T08:59:48;99366.94;;;10.11;100.00
24762;BME280;12865;51.934;10.330;2023-03-20T09:02:34;99371.03;;;10.36;100.00
24762;BME280;12865;51.934;10.330;2023-03-20T09:05:20;99358.66;;;10.35;100.00
24762;BME280;12865;51.934;10.330;2023-03-20T09:08:06;99364.59;;;10.48;100.00
24762;BME280;12865;51.934;10.330;2023-03-20T09:10:52;99352.47;;;10.65;100.00
24762;BME280;12865;51.934;10.330;2023-03-20T09:13:37;99361.59;;;10.72;100.00
24762;BME280;12865;51.934;10.330;2023-03-20T09:16:23;99364.78;;;10.66;100.00
24762;BME280;12865;51.934;10.330;2023-03-20T09:19:09;99358.16;;;10.51;100.00
24762;BME280;12865;51.934;10.330;2023-03-20T09:21:54;99368.13;;;10.58;100.00
24762;BME280;12865;51.934;10.330;2023-03-20T09:24:40;99362.16;;;10.76;100.00
24762;BME280;12865;51.934;10.330;2023-03-20T09:27:26;99367.59;;;10.65;100.00
24762;BME280;12865;51.934;10.330;2023-03-20T09:30:12;99369.13;;;10.67;100.00
24762;BME280;12865;51.934;10.330;2023-03-20T09:32:58;99377.97;;;10.58;100.00
24762;BME280;12865;51.934;10.330;2023-03-20T09:35:43;99372.47;;;10.59;100.00
24762;BME280;12865;51.934;10.330;2023-03-20T09:38:29;99384.88;;;10.70;100.00
24762;BME280;12865;51.934;10.330;2023-03-20T09:41:22;99388.25;;;10.82;100.00
24762;BME280;12865;51.934;10.330;2023-03-20T09:47:44;99385.44;;;10.64;100.00
24762;BME280;12865;51.934;10.330;2023-03-20T09:50:57;99389.25;;;10.90;100.00
24762;BME280;12865;51.934;10.330;2023-03-20T09:53:55;99385.16;;;10.77;100.00
24762;BME280;12865;51.934;10.330;2023-03-20T09:56:44;99390.50;;;10.77;100.00
24762;BME280;12865;51.934;10.330;2023-03-20T09:59:31;99399.44;;;10.66;100.00
24762;BME280;12865;51.934;10.330;2023-03-20T10:05:25;99397.81;;;10.35;100.00
24762;BME280;12865;51.934;10.330;2023-03-20T10:08:14;99395.84;;;10.37;100.00
24762;BME280;12865;51.934;10.330;2023-03-20T10:17:43;99383.22;;;10.39;100.00
24762;BME280;12865;51.934;10.330;2023-03-20T10:20:35;99393.44;;;10.34;100.00
24762;BME280;12865;51.934;10.330;2023-03-20T10:23:35;99381.81;;;10.35;100.00
24762;BME280;12865;51.934;10.330;2023-03-20T10:26:27;99386.16;;;10.36;100.00
24762;BME280;12865;51.934;10.330;2023-03-20T10:29:23;99386.34;;;10.44;100.00
24762;BME280;12865;51.934;10.330;2023-03-20T10:32:22;99384.78;;;10.41;100.00
24762;BME280;12865;51.934;10.330;2023-03-20T10:38:20;99392.03;;;10.70;100.00
24762;BME280;12865;51.934;10.330;2023-03-20T10:41:15;99385.44;;;10.74;100.00
24762;BME280;12865;51.934;10.330;2023-03-20T10:44:02;99384.91;;;10.89;100.00
24762;BME280;12865;51.934;10.330;2023-03-20T10:46:50;99381.56;;;11.07;100.00
24762;BME280;12865;51.934;10.330;2023-03-20T10:49:46;99380.44;;;11.19;100.00
24762;BME280;12865;51.934;10.330;2023-03-20T10:52:37;99372.72;;;10.96;100.00
24762;BME280;12865;51.934;10.330;2023-03-20T10:55:27;99372.84;;;10.85;96.98
24762;BME280;12865;51.934;10.330;2023-03-20T10:58:39;99387.63;;;10.59;98.94
24762;BME280;12865;51.934;10.330;2023-03-20T11:01:25;99382.63;;;10.75;97.31
24762;BME280;12865;51.934;10.330;2023-03-20T11:04:11;99393.59;;;10.72;97.56
24762;BME280;12865;51.934;10.330;2023-03-20T11:10:07;99379.88;;;10.96;96.09
24762;BME280;12865;51.934;10.330;2023-03-20T11:12:54;99388.88;;;11.05;94.88
24762;BME280;12865;51.934;10.330;2023-03-20T11:15:40;99383.25;;;10.98;92.91
24762;BME280;12865;51.934;10.330;2023-03-20T11:18:25;99388.31;;;11.11;92.43
24762;BME280;12865;51.934;10.330;2023-03-20T11:21:26;99376.38;;;11.05;90.86
24762;BME280;12865;51.934;10.330;2023-03-20T11:24:40;99391.38;;;10.96;91.55
24762;BME280;12865;51.934;10.330;2023-03-20T11:27:30;99389.28;;;11.10;90.68
24762;BME280;12865;51.934;10.330;2023-03-20T11:30:17;99381.41;;;10.89;87.90
24762;BME280;12865;51.934;10.330;2023-03-20T11:33:04;99384.25;;;11.07;89.08
24762;BME280;12865;51.934;10.330;2023-03-20T11:35:52;99374.81;;;10.93;85.95
24762;BME280;12865;51.934;10.330;2023-03-20T11:38:48;99376.03;;;10.70;84.57
24762;BME280;12865;51.934;10.330;2023-03-20T11:41:46;99371.25;;;10.73;85.45
24762;BME280;12865;51.934;10.330;2023-03-20T11:44:35;99368.44;;;10.65;84.22
24762;BME280;12865;51.934;10.330;2023-03-20T11:47:24;99365.78;;;10.75;83.57
24762;BME280;12865;51.934;10.330;2023-03-20T11:55:32;99369.38;;;11.14;83.74
24762;BME280;12865;51.934;10.330;2023-03-20T11:58:19;99352.66;;;11.12;82.40
24762;BME280;12865;51.934;10.330;2023-03-20T12:01:07;99344.63;;;11.31;83.10
24762;BME280;12865;51.934;10.330;2023-03-20T12:06:46;99329.28;;;11.52;80.78
24762;BME280;12865;51.934;10.330;2023-03-20T12:12:56;99332.41;;;11.38;78.62
24762;BME280;12865;51.934;10.330;2023-03-20T12:15:49;99322.44;;;11.30;79.58
24762;BME280;12865;51.934;10.330;2023-03-20T12:18:48;99322.56;;;11.29;78.62
24762;BME280;12865;51.934;10.330;2023-03-20T12:21:58;99321.16;;;11.54;79.63
24762;BME280;12865;51.934;10.330;2023-03-20T12:24:59;99320.16;;;11.45;78.00
24762;BME280;12865;51.934;10.330;2023-03-20T12:27:54;99314.53;;;11.58;75.76
24762;BME280;12865;51.934;10.330;2023-03-20T12:30:48;99311.63;;;11.13;76.88
24762;BME280;12865;51.934;10.330;2023-03-20T12:33:43;99321.16;;;11.44;77.37
24762;BME280;12865;51.934;10.330;2023-03-20T12:36:33;99312.56;;;11.60;77.05
24762;BME280;12865;51.934;10.330;2023-03-20T12:39:22;99307.34;;;11.58;75.23
24762;BME280;12865;51.934;10.330;2023-03-20T12:45:19;99312.00;;;11.75;74.56
24762;BME280;12865;51.934;10.330;2023-03-20T12:48:40;99294.91;;;11.96;73.97
24762;BME280;12865;51.934;10.330;2023-03-20T12:57:57;99289.84;;;11.93;73.71
24762;BME280;12865;51.934;10.330;2023-03-20T13:00:51;99289.53;;;12.05;73.49
24762;BME280;12865;51.934;10.330;2023-03-20T13:07:02;99286.25;;;12.39;72.53
24762;BME280;12865;51.934;10.330;2023-03-20T13:10:02;99296.50;;;11.79;72.18
24762;BME280;12865;51.934;10.330;2023-03-20T13:15:51;99282.53;;;11.95;72.85
24762;BME280;12865;51.934;10.330;2023-03-20T13:18:45;99293.88;;;12.06;72.52
24762;BME280;12865;51.934;10.330;2023-03-20T13:22:03;99280.59;;;11.87;72.12
24762;BME280;12865;51.934;10.330;2023-03-20T13:25:01;99275.38;;;11.95;72.66
24762;BME280;12865;51.934;10.330;2023-03-20T13:27:55;99294.31;;;12.29;70.77
24762;BME280;12865;51.934;10.330;2023-03-20T13:30:54;99283.94;;;12.53;69.83
24762;BME280;12865;51.934;10.330;2023-03-20T13:37:20;99284.47;;;12.30;69.55
24762;BME280;12865;51.934;10.330;2023-03-20T13:43:18;99275.13;;;12.16;71.82
24762;BME280;12865;51.934;10.330;2023-03-20T13:49:24;99287.78;;;12.14;70.06
24762;BME280;12865;51.934;10.330;2023-03-20T13:52:19;99282.81;;;11.92;70.84
24762;BME280;12865;51.934;10.330;2023-03-20T13:58:06;99263.69;;;11.96;69.10
24762;BME280;12865;51.934;10.330;2023-03-20T14:03:47;99264.50;;;12.51;67.92
24762;BME280;12865;51.934;10.330;2023-03-20T14:09:33;99257.38;;;12.42;67.21
24762;BME280;12865;51.934;10.330;2023-03-20T14:12:23;99250.16;;;12.52;65.13
24762;BME280;12865;51.934;10.330;2023-03-20T14:15:10;99266.19;;;12.52;66.37
24762;BME280;12865;51.934;10.330;2023-03-20T14:17:56;99247.75;;;12.49;64.59
24762;BME280;12865;51.934;10.330;2023-03-20T14:20:43;99250.25;;;12.61;64.44
24762;BME280;12865;51.934;10.330;2023-03-20T14:23:40;99244.03;;;12.60;63.52
24762;BME280;12865;51.934;10.330;2023-03-20T14:26:30;99249.72;;;12.75;64.04
24762;BME280;12865;51.934;10.330;2023-03-20T14:32:22;99245.31;;;13.09;62.85
24762;BME280;12865;51.934;10.330;2023-03-20T14:35:26;99249.63;;;13.20;62.07
24762;BME280;12865;51.934;10.330;2023-03-20T14:38:28;99259.78;;;12.81;61.20
24762;BME280;12865;51.934;10.330;2023-03-20T14:41:23;99258.84;;;12.54;60.55
24762;BME280;12865;51.934;10.330;2023-03-20T14:44:21;99257.84;;;12.55;61.79
24762;BME280;12865;51.934;10.330;2023-03-20T14:47:21;99256.72;;;12.93;63.06
24762;BME280;12865;51.934;10.330;2023-03-20T14:50:18;99254.06;;;12.93;60.43
24762;BME280;12865;51.934;10.330;2023-03-20T14:53:26;99245.34;;;12.74;61.12
24762;BME280;12865;51.934;10.330;2023-03-20T14:56:13;99253.44;;;12.64;61.36
24762;BME280;12865;51.934;10.330;2023-03-20T14:59:06;99252.69;;;12.54;60.60
24762;BME280;12865;51.934;10.330;2023-03-20T15:01:57;99256.72;;;12.76;61.54
24762;BME280;12865;51.934;10.330;2023-03-20T15:04:43;99247.56;;;12.61;61.35
24762;BME280;12865;51.934;10.330;2023-03-20T15:07:30;99245.22;;;12.48;60.36
24762;BME280;12865;51.934;10.330;2023-03-20T15:10:20;99245.22;;;12.48;61.03
24762;BME280;12865;51.934;10.330;2023-03-20T15:13:06;99242.75;;;12.46;61.78
24762;BME280;12865;51.934;10.330;2023-03-20T15:15:58;99237.72;;;12.34;62.05
24762;BME280;12865;51.934;10.330;2023-03-20T15:18:50;99244.47;;;12.38;63.26
24762;BME280;12865;51.934;10.330;2023-03-20T15:21:37;99244.50;;;12.10;62.66
24762;BME280;12865;51.934;10.330;2023-03-20T15:24:27;99233.50;;;12.13;62.99
24762;BME280;12865;51.934;10.330;2023-03-20T15:27:13;99240.66;;;12.13;62.96
24762;BME280;12865;51.934;10.330;2023-03-20T15:30:01;99251.94;;;12.34;62.58
24762;BME280;12865;51.934;10.330;2023-03-20T15:32:52;99249.00;;;12.10;63.44
24762;BME280;12865;51.934;10.330;2023-03-20T15:35:38;99244.50;;;12.10;62.94
24762;BME280;12865;51.934;10.330;2023-03-20T15:38:29;99238.56;;;12.16;62.98
24762;BME280;12865;51.934;10.330;2023-03-20T15:41:28;99239.69;;;12.14;62.72
24762;BME280;12865;51.934;10.330;2023-03-20T15:47:02;99229.06;;;11.67;63.72
24762;BME280;12865;51.934;10.330;2023-03-20T15:49:54;99243.22;;;11.77;64.90
24762;BME280;12865;51.934;10.330;2023-03-20T15:52:45;99245.22;;;11.75;64.07
24762;BME280;12865;51.934;10.330;2023-03-20T15:55:37;99242.25;;;11.78;64.94
24762;BME280;12865;51.934;10.330;2023-03-20T15:58:23;99232.84;;;11.74;65.31
24762;BME280;12865;51.934;10.330;2023-03-20T16:01:22;99238.19;;;11.74;65.79
24762;BME280;12865;51.934;10.330;2023-03-20T16:04:12;99225.25;;;11.70;66.12
24762;BME280;12865;51.934;10.330;2023-03-20T16:06:59;99233.19;;;11.52;66.46
24762;BME280;12865;51.934;10.330;2023-03-20T16:09:45;99236.03;;;11.41;66.39
24762;BME280;12865;51.934;10.330;2023-03-20T16:12:31;99238.19;;;11.28;68.17
24762;BME280;12865;51.934;10.330;2023-03-20T16:15:18;99242.41;;;11.21;67.23
24762;BME280;12865;51.934;10.330;2023-03-20T16:18:04;99239.28;;;11.25;68.33
24762;BME280;12865;51.934;10.330;2023-03-20T16:20:57;99248.41;;;11.23;68.87